Colby, KS

9:42 PM CDT on May 24, 2015 (GMT -0500)
145 E Cherry - K0FJ | | Change Station
CLOSE
Current Station
Personal Weather Station
Location: Colby, KS
Elevation: 3150 ft
Nearby Weather Stations

Elev 3150 ft 39.39 °N, 101.05 °W | Updated 1 minute ago

Overcast
Overcast
56.3 °F
Feels Like 56.3 °F
N
8.0
Wind Variable Wind from NW
Gusts 9.0 mph

Today
High -- | Low -- °F
--% Chance of Precip.
Yesterday
High -- | Low -- °F
Precip. -- in
6:23 AM 8:58 PM
Waxing Crescent, 44% visible
Pressure 29.84 in
Visibility 10.0 miles
Clouds Scattered Clouds 1800 ft
Mostly Cloudy 2500 ft
Overcast 6000 ft
Dew Point 48 °F
Humidity 74%
Rainfall 0.18 in
Snow Depth Not available.
UV 0 out of 12
Pollen 7.90 out of 12
Air Quality Not available.
Flu Activity No Activity
METAR KCBK 250215Z AUTO 30014G20KT 10SM SCT018 BKN025 OVC060 13/10 A2984 RMK AO2

More Conditions Fewer Conditions

Pressure 29.84 in
Visibility 10.0 miles
Clouds Scattered Clouds 1800 ft
Mostly Cloudy 2500 ft
Overcast 6000 ft
Dew Point 48 °F
Humidity 74%
Rainfall 0.18 in
Snow Depth Not available.
UV 0 out of 12
Pollen 7.90 out of 12
Air Quality Not available.
Flu Activity No Activity
METAR KCBK 250215Z AUTO 30014G20KT 10SM SCT018 BKN025 OVC060 13/10 A2984 RMK AO2

More Conditions Fewer Conditions

Nowcast | as of 6:28 PM MDT on May 24, 2015

At 627 PM MDT /727 PM CDT/...Doppler radar indicated a line of thunderstorms...along a line extending from 5 miles south of Crete to 14 miles north of Weskan moving northeast at 30 mph. Half inch hail and winds to 40 mph will be possible with these storms. Locations impacted include... Colby...Goodland...St. Francis...Atwood...Benkelman...Trenton... Brewster...Ruleton...Edson and Levant. This includes Interstate 70 in Kansas between mile markers 2 and 72. A Tornado Watch remains in effect until midnight MDT/100 am CDT/ for northwestern Kansas and southwestern Nebraska.

×

10-Day Weather Forecast

Almanac

Astronomy

May. 24, 2015 Rise Set
Actual Time
Civil Twilight
Nautical Twilight
Astronomical Twilight
Moon
Length of Visible Light
Length of Day
Tomorrow will be .
, % of the Moon is Illuminated

Today's Extremes

State Highs State Lows

Community

WunderPhotos

Upload Photos

1,823,936 photos uploaded!

WunderBlogs® & News

Nearby

Air Quality

  Air Quality AQ Index Pollutant
Not available.

Snow Depth

Station Depth Elevation

Earthquake Activity

City Distance Mag. Time & Date
Minimum magnitude displayed is 2.5.

Coastal Water Temperatures

Place Temperature

Stations

Nearby Weather Stations

Station Location Temp. Windchill Dew Point Humidity Wind Precip. Elev Updated Type